createdAt,value
2022-09-18T00:00:22.308Z,10.16
2022-09-18T00:01:22.397Z,10.12
2022-09-18T00:02:22.323Z,10.20
2022-09-18T00:03:22.248Z,10.13
2022-09-18T00:04:22.352Z,10.20
2022-09-18T00:05:22.230Z,10.20
2022-09-18T00:06:22.215Z,10.17
2022-09-18T00:07:22.185Z,10.15
2022-09-18T00:08:22.177Z,10.16
2022-09-18T00:09:22.251Z,10.15
2022-09-18T00:10:22.170Z,10.17
2022-09-18T00:11:22.166Z,10.16
2022-09-18T00:12:22.134Z,10.15
2022-09-18T00:13:22.134Z,10.22
2022-09-18T00:14:22.133Z,10.17
2022-09-18T00:15:22.116Z,10.25
2022-09-18T00:16:22.177Z,10.28
2022-09-18T00:17:22.096Z,10.31
2022-09-18T00:18:22.097Z,10.35
2022-09-18T00:19:22.099Z,10.30
2022-09-18T00:20:22.177Z,10.30
2022-09-18T00:21:22.095Z,10.33
2022-09-18T00:22:22.070Z,10.34
2022-09-18T00:23:22.058Z,10.33
2022-09-18T00:24:22.048Z,10.22
2022-09-18T00:25:22.028Z,10.37
2022-09-18T00:26:22.039Z,10.34
2022-09-18T00:27:22.034Z,10.30
2022-09-18T00:28:22.000Z,10.25
2022-09-18T00:29:21.980Z,10.33
2022-09-18T00:30:21.972Z,10.30
2022-09-18T00:31:22.075Z,10.33
2022-09-18T00:32:21.930Z,10.23
2022-09-18T00:33:22.018Z,10.34
2022-09-18T00:34:21.959Z,10.26
2022-09-18T00:35:21.952Z,10.30
2022-09-18T00:36:22.085Z,10.30
2022-09-18T00:37:21.925Z,10.37
2022-09-18T00:38:21.886Z,10.31
2022-09-18T00:39:21.911Z,10.34
2022-09-18T00:40:21.937Z,10.31
2022-09-18T00:41:21.865Z,10.35
2022-09-18T00:42:21.862Z,10.38
2022-09-18T00:43:21.848Z,10.33
2022-09-18T00:44:21.832Z,10.37
2022-09-18T00:45:21.833Z,10.33
2022-09-18T00:46:21.947Z,10.35
2022-09-18T00:47:21.823Z,10.38
2022-09-18T00:48:21.819Z,10.37
2022-09-18T00:49:21.792Z,10.41
2022-09-18T00:50:21.777Z,10.34
2022-09-18T00:51:21.761Z,10.37
2022-09-18T00:52:21.905Z,10.41
2022-09-18T00:53:21.768Z,10.38
2022-09-18T00:54:21.756Z,10.48
2022-09-18T00:55:21.724Z,10.40
2022-09-18T00:56:21.769Z,10.41
2022-09-18T00:57:21.717Z,10.40
2022-09-18T00:58:21.682Z,10.42
2022-09-18T00:59:21.686Z,10.41
2022-09-18T01:00:21.692Z,10.44
2022-09-18T01:01:21.727Z,10.48
2022-09-18T01:02:21.759Z,10.48
2022-09-18T01:03:21.662Z,10.48
2022-09-18T01:04:21.634Z,10.42
2022-09-18T01:05:21.614Z,10.54
2022-09-18T01:06:21.633Z,10.49
2022-09-18T01:07:21.641Z,10.54
2022-09-18T01:08:21.727Z,10.44
2022-09-18T01:09:28.663Z,10.49
2022-09-18T01:10:21.585Z,10.53
2022-09-18T01:11:21.577Z,10.44
2022-09-18T01:12:21.610Z,10.42
2022-09-18T01:13:21.548Z,10.40
2022-09-18T01:14:21.529Z,10.44
2022-09-18T01:15:21.514Z,10.49
2022-09-18T01:16:21.566Z,10.40
2022-09-18T01:17:21.546Z,10.51
2022-09-18T01:18:21.534Z,10.42
2022-09-18T01:19:21.528Z,10.42
2022-09-18T01:20:21.516Z,10.42
2022-09-18T01:21:21.478Z,10.51
2022-09-18T01:22:21.454Z,10.46
2022-09-18T01:23:21.448Z,10.40
2022-09-18T01:24:21.548Z,10.42
2022-09-18T01:25:21.425Z,10.46
2022-09-18T01:26:21.441Z,10.48
2022-09-18T01:27:21.426Z,10.46
2022-09-18T01:28:21.434Z,10.48
2022-09-18T01:29:21.414Z,10.42
2022-09-18T01:30:21.362Z,10.41
2022-09-18T01:31:21.421Z,10.46
2022-09-18T01:32:21.405Z,10.38
2022-09-18T01:33:21.345Z,10.40
2022-09-18T01:34:21.374Z,10.38
2022-09-18T01:35:40.467Z,10.42
2022-09-18T01:36:21.344Z,10.40
2022-09-18T01:37:21.330Z,10.42
2022-09-18T01:38:21.329Z,10.44
2022-09-18T01:39:21.270Z,10.42
2022-09-18T01:40:21.496Z,10.46
2022-09-18T01:41:21.273Z,10.42
2022-09-18T01:42:21.246Z,10.44
2022-09-18T01:43:21.244Z,10.40
2022-09-18T01:44:21.231Z,10.33
2022-09-18T01:45:21.321Z,10.37
2022-09-18T01:46:21.364Z,10.35
2022-09-18T01:47:21.232Z,10.35
2022-09-18T01:48:21.198Z,10.35
2022-09-18T01:49:21.203Z,10.37
2022-09-18T01:50:21.175Z,10.37
2022-09-18T01:51:21.194Z,10.40
2022-09-18T01:52:21.576Z,10.42
2022-09-18T01:53:21.159Z,10.33
2022-09-18T01:54:21.383Z,10.34
2022-09-18T01:55:21.530Z,10.34
2022-09-18T01:56:21.601Z,10.26
2022-09-18T01:57:21.433Z,10.34
2022-09-18T01:58:21.516Z,10.31
2022-09-18T01:59:21.383Z,10.22
2022-09-18T02:00:21.586Z,10.26
2022-09-18T02:01:21.563Z,10.28
2022-09-18T02:02:21.358Z,10.19
2022-09-18T02:03:21.291Z,10.13
2022-09-18T02:04:21.360Z,10.20
2022-09-18T02:05:21.103Z,10.20
2022-09-18T02:06:21.241Z,10.13
2022-09-18T02:07:21.552Z,10.16
2022-09-18T02:08:21.279Z,10.12
2022-09-18T02:09:21.293Z,10.04
2022-09-18T02:10:21.270Z,10.09
2022-09-18T02:11:21.337Z,9.95
2022-09-18T02:12:21.604Z,9.95
2022-09-18T02:13:20.972Z,9.89
2022-09-18T02:14:21.181Z,9.87
2022-09-18T02:15:20.909Z,9.87
2022-09-18T02:16:21.048Z,9.76
2022-09-18T02:17:21.261Z,9.76
2022-09-18T02:18:20.885Z,9.83
2022-09-18T02:19:21.134Z,9.77
2022-09-18T02:20:21.165Z,9.72
2022-09-18T02:21:21.114Z,9.77
2022-09-18T02:22:21.316Z,9.69
2022-09-18T02:23:21.397Z,9.68
2022-09-18T02:24:21.115Z,9.79
2022-09-18T02:25:21.085Z,9.77
2022-09-18T02:26:21.099Z,9.82
2022-09-18T02:27:21.216Z,9.77
2022-09-18T02:28:21.179Z,9.73
2022-09-18T02:29:21.189Z,9.77
2022-09-18T02:30:21.183Z,9.76
2022-09-18T02:31:21.283Z,9.74
2022-09-18T02:32:20.753Z,9.73
2022-09-18T02:33:20.966Z,9.69
2022-09-18T02:34:21.028Z,9.79
2022-09-18T02:35:20.818Z,9.66
2022-09-18T02:36:20.983Z,9.73
2022-09-18T02:37:21.048Z,9.69
2022-09-18T02:38:20.723Z,9.74
2022-09-18T02:39:21.067Z,9.69
2022-09-18T02:40:21.234Z,9.62
2022-09-18T02:41:20.992Z,9.64
2022-09-18T02:42:21.051Z,9.56
2022-09-18T02:43:20.956Z,9.61
2022-09-18T02:44:21.051Z,9.61
2022-09-18T02:45:21.171Z,9.55
2022-09-18T02:46:20.901Z,9.56
2022-09-18T02:47:21.018Z,9.50
2022-09-18T02:48:20.880Z,9.59
2022-09-18T02:49:21.283Z,9.59
2022-09-18T02:50:20.826Z,9.48
2022-09-18T02:51:20.588Z,9.51
2022-09-18T02:52:21.109Z,9.58
2022-09-18T02:53:20.897Z,9.61
2022-09-18T02:54:21.099Z,9.61
2022-09-18T02:55:21.055Z,9.64
2022-09-18T02:56:20.918Z,9.61
2022-09-18T02:57:20.919Z,9.61
2022-09-18T02:58:20.705Z,9.58
2022-09-18T02:59:20.967Z,9.64
2022-09-18T03:00:20.875Z,9.61
2022-09-18T03:01:20.843Z,9.58
2022-09-18T03:02:20.935Z,9.62
2022-09-18T03:03:20.672Z,9.72
2022-09-18T03:04:20.814Z,9.69
2022-09-18T03:05:20.829Z,9.80
2022-09-18T03:06:20.835Z,9.79
2022-09-18T03:07:20.565Z,9.86
2022-09-18T03:08:20.902Z,9.82
2022-09-18T03:09:20.744Z,9.80
2022-09-18T03:10:20.757Z,9.86
2022-09-18T03:11:20.677Z,9.91
2022-09-18T03:12:20.832Z,9.95
2022-09-18T03:13:20.713Z,9.86
2022-09-18T03:14:20.696Z,9.87
2022-09-18T03:15:20.477Z,9.92
2022-09-18T03:16:20.951Z,9.82
2022-09-18T03:17:20.763Z,9.82
2022-09-18T03:18:20.472Z,9.92
2022-09-18T03:19:20.738Z,9.91
2022-09-18T03:20:20.777Z,9.91
2022-09-18T03:21:20.657Z,9.87
2022-09-18T03:22:20.648Z,9.86
2022-09-18T03:23:20.352Z,9.84
2022-09-18T03:24:20.603Z,9.83
2022-09-18T03:25:20.801Z,9.69
2022-09-18T03:26:20.493Z,9.69
2022-09-18T03:27:20.607Z,9.72
2022-09-18T03:28:20.511Z,9.73
2022-09-18T03:29:20.447Z,9.68
2022-09-18T03:30:20.726Z,9.66
2022-09-18T03:31:20.609Z,9.66
2022-09-18T03:32:20.917Z,9.73
2022-09-18T03:33:20.531Z,9.73
2022-09-18T03:34:20.647Z,9.64
2022-09-18T03:35:20.152Z,9.65
2022-09-18T03:36:20.562Z,9.65
2022-09-18T03:37:20.398Z,9.51
2022-09-18T03:38:20.449Z,9.54
2022-09-18T03:39:20.484Z,9.56
2022-09-18T03:40:20.606Z,9.54
2022-09-18T03:41:20.414Z,9.46
2022-09-18T03:42:20.130Z,9.41
2022-09-18T03:43:20.396Z,9.40
2022-09-18T03:44:20.571Z,9.31
2022-09-18T03:45:20.399Z,9.22
2022-09-18T03:46:20.281Z,9.21
2022-09-18T03:47:20.312Z,9.25
2022-09-18T03:48:20.524Z,9.23
2022-09-18T03:49:20.251Z,9.23
2022-09-18T03:50:20.553Z,9.18
2022-09-18T03:51:20.422Z,9.25
2022-09-18T03:52:20.300Z,9.23
2022-09-18T03:53:20.351Z,9.18
2022-09-18T03:54:20.222Z,9.19
2022-09-18T03:55:20.120Z,9.14
2022-09-18T03:56:20.543Z,9.10
2022-09-18T03:57:20.239Z,9.18
2022-09-18T03:58:19.894Z,9.19
2022-09-18T03:59:20.190Z,9.23
2022-09-18T04:00:20.181Z,9.26
2022-09-18T04:01:21.258Z,9.19
2022-09-18T04:02:20.442Z,9.28
2022-09-18T04:03:20.242Z,9.23
2022-09-18T04:04:20.355Z,9.34
2022-09-18T04:05:20.193Z,9.29
2022-09-18T04:06:20.183Z,9.34
2022-09-18T04:07:20.209Z,9.36
2022-09-18T04:08:20.142Z,9.40
2022-09-18T04:09:20.350Z,9.32
2022-09-18T04:10:20.107Z,9.21
2022-09-18T04:11:20.191Z,9.23
2022-09-18T04:12:20.332Z,9.22
2022-09-18T04:13:20.009Z,9.19
2022-09-18T04:14:20.127Z,9.18
2022-09-18T04:15:20.113Z,9.22
2022-09-18T04:16:20.073Z,9.23
2022-09-18T04:17:20.061Z,9.26
2022-09-18T04:18:20.074Z,9.25
2022-09-18T04:19:20.288Z,9.26
2022-09-18T04:20:20.096Z,9.25
2022-09-18T04:21:19.927Z,9.23
2022-09-18T04:22:19.832Z,9.21
2022-09-18T04:23:20.134Z,9.26
2022-09-18T04:24:19.961Z,9.29
2022-09-18T04:25:20.074Z,9.28
2022-09-18T04:26:19.974Z,9.21
2022-09-18T04:27:20.024Z,9.34
2022-09-18T04:28:19.977Z,9.32
2022-09-18T04:29:20.137Z,9.36
2022-09-18T04:30:19.903Z,9.25
2022-09-18T04:31:20.073Z,9.28
2022-09-18T04:32:20.026Z,9.37
2022-09-18T04:33:19.873Z,9.39
2022-09-18T04:34:20.030Z,9.43
2022-09-18T04:35:19.668Z,9.47
2022-09-18T04:36:19.776Z,9.59
2022-09-18T04:37:20.007Z,9.58
2022-09-18T04:38:19.876Z,9.61
2022-09-18T04:39:20.085Z,9.61
2022-09-18T04:40:20.258Z,9.58
2022-09-18T04:41:19.628Z,9.58
2022-09-18T04:42:19.482Z,9.59
2022-09-18T04:43:19.432Z,9.61
2022-09-18T04:44:19.772Z,9.62
2022-09-18T04:45:19.579Z,9.61
2022-09-18T04:46:19.572Z,9.64
2022-09-18T04:47:19.700Z,9.65
2022-09-18T04:48:19.673Z,9.64
2022-09-18T04:49:19.502Z,9.69
2022-09-18T04:50:19.739Z,9.64
2022-09-18T04:51:19.399Z,9.64
2022-09-18T04:52:19.652Z,9.65
2022-09-18T04:53:19.317Z,9.58
2022-09-18T04:54:19.315Z,9.59
2022-09-18T04:55:19.463Z,9.58
2022-09-18T04:56:19.301Z,9.50
2022-09-18T04:57:19.313Z,9.56
2022-09-18T04:58:19.349Z,9.61
2022-09-18T04:59:19.355Z,9.62
2022-09-18T05:00:19.424Z,9.62
2022-09-18T05:01:19.406Z,9.68
2022-09-18T05:02:19.404Z,9.74
2022-09-18T05:03:19.248Z,9.68
2022-09-18T05:04:19.246Z,9.61
2022-09-18T05:05:19.383Z,9.58
2022-09-18T05:06:19.242Z,9.65
2022-09-18T05:07:19.196Z,9.50
2022-09-18T05:08:19.328Z,9.48
2022-09-18T05:09:19.175Z,9.48
2022-09-18T05:10:19.310Z,9.51
2022-09-18T05:11:19.185Z,9.47
2022-09-18T05:12:19.131Z,9.37
2022-09-18T05:13:19.199Z,9.43
2022-09-18T05:14:19.092Z,9.47
2022-09-18T05:15:19.254Z,9.59
2022-09-18T05:16:19.201Z,9.58
2022-09-18T05:17:19.081Z,9.62
2022-09-18T05:18:19.082Z,9.64
2022-09-18T05:19:19.072Z,9.64
2022-09-18T05:20:19.198Z,9.59
2022-09-18T05:21:19.031Z,9.62
2022-09-18T05:22:19.053Z,9.61
2022-09-18T05:23:19.068Z,9.61
2022-09-18T05:24:19.128Z,9.64
2022-09-18T05:25:19.187Z,9.69
2022-09-18T05:26:19.039Z,9.73
2022-09-18T05:27:20.622Z,9.62
2022-09-18T05:28:18.978Z,9.65
2022-09-18T05:29:18.972Z,9.62
2022-09-18T05:30:19.095Z,9.48
2022-09-18T05:31:19.236Z,9.55
2022-09-18T05:32:19.099Z,9.51
2022-09-18T05:33:18.953Z,9.59
2022-09-18T05:34:18.918Z,9.56
2022-09-18T05:35:19.080Z,9.61
2022-09-18T05:36:19.003Z,9.61
2022-09-18T05:37:19.126Z,9.56
2022-09-18T05:38:19.030Z,9.56
2022-09-18T05:39:19.318Z,9.61
2022-09-18T05:40:19.508Z,9.62
2022-09-18T05:41:18.914Z,9.61
2022-09-18T05:42:18.951Z,9.61
2022-09-18T05:43:19.321Z,9.76
2022-09-18T05:44:19.183Z,9.89
2022-09-18T05:45:19.083Z,9.92
2022-09-18T05:46:18.841Z,10.07
2022-09-18T05:47:18.817Z,10.19
2022-09-18T05:48:18.785Z,10.16
2022-09-18T05:49:18.791Z,10.19
2022-09-18T05:50:18.890Z,10.25
2022-09-18T05:51:18.748Z,10.23
2022-09-18T05:52:18.726Z,10.19
2022-09-18T05:53:18.724Z,10.22
2022-09-18T05:54:18.709Z,10.23
2022-09-18T05:55:18.848Z,10.19
2022-09-18T05:56:18.815Z,10.35
2022-09-18T05:57:18.717Z,10.44
2022-09-18T05:58:18.690Z,10.57
2022-09-18T05:59:18.670Z,10.56
2022-09-18T06:00:18.837Z,10.49
2022-09-18T06:01:18.747Z,10.33
2022-09-18T06:02:18.751Z,10.33
2022-09-18T06:03:18.695Z,10.38
2022-09-18T06:04:18.622Z,10.35
2022-09-18T06:05:18.743Z,10.37
2022-09-18T06:06:18.619Z,10.37
2022-09-18T06:07:18.583Z,10.41
2022-09-18T06:08:18.610Z,10.46
2022-09-18T06:09:18.606Z,10.42
2022-09-18T06:10:18.717Z,10.40
2022-09-18T06:11:18.569Z,10.35
2022-09-18T06:12:18.752Z,10.25
2022-09-18T06:13:18.602Z,10.13
2022-09-18T06:14:18.558Z,10.22
2022-09-18T06:15:18.685Z,10.17
2022-09-18T06:16:18.706Z,10.22
2022-09-18T06:17:18.503Z,10.15
2022-09-18T06:18:18.537Z,10.15
2022-09-18T06:19:18.489Z,10.16
2022-09-18T06:20:19.027Z,10.22
2022-09-18T06:21:18.538Z,10.20
2022-09-18T06:22:18.476Z,10.26
2022-09-18T06:23:18.512Z,10.23
2022-09-18T06:24:18.486Z,10.26
2022-09-18T06:25:18.560Z,10.34
2022-09-18T06:26:18.431Z,10.30
2022-09-18T06:27:18.398Z,10.26
2022-09-18T06:28:18.506Z,10.25
2022-09-18T06:29:18.429Z,10.23
2022-09-18T06:30:18.551Z,10.40
2022-09-18T06:31:18.439Z,10.40
2022-09-18T06:32:18.440Z,10.38
2022-09-18T06:33:18.363Z,10.40
2022-09-18T06:34:18.346Z,10.60
2022-09-18T06:35:18.496Z,10.63
2022-09-18T06:36:18.367Z,10.74
2022-09-18T06:37:18.323Z,10.93
2022-09-18T06:38:18.297Z,11.15
2022-09-18T06:39:18.283Z,11.48
2022-09-18T06:40:18.546Z,11.81
2022-09-18T06:41:18.269Z,12.04
2022-09-18T06:42:18.254Z,12.12
2022-09-18T06:43:18.286Z,12.29
2022-09-18T06:44:18.387Z,12.36
2022-09-18T06:45:18.412Z,12.31
2022-09-18T06:46:18.295Z,12.61
2022-09-18T06:47:18.221Z,12.78
2022-09-18T06:48:18.237Z,12.67
2022-09-18T06:49:18.204Z,12.70
2022-09-18T06:50:18.326Z,12.75
2022-09-18T06:51:18.175Z,12.83
2022-09-18T06:52:18.311Z,12.73
2022-09-18T06:53:18.210Z,13.04
2022-09-18T06:54:18.174Z,13.23
2022-09-18T06:55:18.331Z,13.50
2022-09-18T06:56:18.250Z,13.62
2022-09-18T06:57:18.133Z,13.70
2022-09-18T06:58:18.126Z,13.87
2022-09-18T06:59:18.119Z,14.05
2022-09-18T07:00:18.430Z,13.90
2022-09-18T07:01:18.187Z,13.89
2022-09-18T07:02:19.763Z,14.08
2022-09-18T07:03:18.140Z,14.32
2022-09-18T07:04:18.081Z,14.43
2022-09-18T07:05:18.463Z,14.55
2022-09-18T07:06:18.085Z,14.37
2022-09-18T07:07:18.119Z,14.47
2022-09-18T07:08:18.096Z,14.70
2022-09-18T07:09:18.086Z,14.78
2022-09-18T07:10:18.171Z,14.89
2022-09-18T07:11:18.076Z,14.85
2022-09-18T07:12:18.063Z,14.86
2022-09-18T07:13:18.103Z,14.88
2022-09-18T07:14:18.078Z,15.11
2022-09-18T07:15:18.281Z,15.28
2022-09-18T07:16:18.436Z,15.54
2022-09-18T07:17:20.452Z,15.35
2022-09-18T07:18:18.045Z,15.57
2022-09-18T07:19:18.035Z,15.90
2022-09-18T07:20:18.218Z,15.90
2022-09-18T07:21:18.035Z,16.36
2022-09-18T07:22:18.034Z,16.28
2022-09-18T07:23:18.230Z,16.23
2022-09-18T07:24:18.038Z,16.38
2022-09-18T07:25:18.160Z,16.36
2022-09-18T07:26:18.175Z,16.38
2022-09-18T07:27:18.059Z,15.79
2022-09-18T07:28:18.067Z,15.35
2022-09-18T07:29:18.017Z,14.62
2022-09-18T07:30:18.155Z,14.43
2022-09-18T07:31:18.077Z,14.29
2022-09-18T07:32:18.123Z,14.65
2022-09-18T07:33:18.257Z,15.22
2022-09-18T07:34:18.068Z,15.64
2022-09-18T07:35:18.583Z,15.73
2022-09-18T07:36:18.010Z,16.13
2022-09-18T07:37:17.996Z,16.36
2022-09-18T07:38:18.021Z,16.56
2022-09-18T07:39:18.029Z,16.65
2022-09-18T07:40:18.261Z,17.14
2022-09-18T07:41:18.014Z,17.44
2022-09-18T07:42:18.014Z,17.95
2022-09-18T07:43:18.013Z,18.23
2022-09-18T07:44:17.979Z,18.66
2022-09-18T07:45:18.147Z,18.53
2022-09-18T07:46:18.069Z,18.20
2022-09-18T07:47:17.991Z,18.10
2022-09-18T07:48:18.116Z,18.56
2022-09-18T07:49:18.008Z,18.90
2022-09-18T07:50:18.406Z,18.77
2022-09-18T07:51:19.448Z,18.53
2022-09-18T07:52:17.995Z,17.44
2022-09-18T07:53:17.998Z,16.38
2022-09-18T07:54:17.963Z,15.76
2022-09-18T07:55:18.198Z,15.64
2022-09-18T07:56:17.970Z,15.49
2022-09-18T07:57:17.999Z,15.31
2022-09-18T07:58:17.968Z,15.07
2022-09-18T07:59:17.975Z,14.97
2022-09-18T08:00:18.138Z,14.62
2022-09-18T08:01:18.203Z,14.55
2022-09-18T08:02:19.261Z,14.55
2022-09-18T08:03:18.024Z,14.41
2022-09-18T08:04:18.068Z,14.33
2022-09-18T08:05:18.096Z,14.00
2022-09-18T08:06:17.933Z,13.92
2022-09-18T08:07:17.954Z,13.89
2022-09-18T08:08:18.152Z,13.72
2022-09-18T08:09:17.958Z,13.74
2022-09-18T08:10:18.086Z,13.72
2022-09-18T08:11:17.910Z,13.72
2022-09-18T08:12:17.902Z,13.78
2022-09-18T08:13:17.916Z,13.72
2022-09-18T08:14:17.901Z,13.50
2022-09-18T08:15:18.030Z,13.37
2022-09-18T08:16:17.944Z,13.46
2022-09-18T08:17:17.892Z,13.39
2022-09-18T08:18:17.877Z,13.41
2022-09-18T08:19:17.892Z,13.35
2022-09-18T08:20:18.163Z,13.38
2022-09-18T08:21:17.856Z,13.41
2022-09-18T08:22:17.862Z,13.31
2022-09-18T08:23:17.859Z,13.37
2022-09-18T08:24:17.836Z,13.37
2022-09-18T08:25:18.366Z,13.44
2022-09-18T08:26:22.173Z,13.31
2022-09-18T08:27:17.835Z,13.27
2022-09-18T08:28:17.809Z,13.11
2022-09-18T08:29:17.801Z,13.11
2022-09-18T08:30:18.175Z,13.09
2022-09-18T08:31:17.862Z,13.09
2022-09-18T08:32:17.793Z,13.12
2022-09-18T08:33:17.784Z,13.08
2022-09-18T08:34:17.760Z,13.04
2022-09-18T08:35:17.968Z,13.11
2022-09-18T08:36:18.256Z,13.18
2022-09-18T08:37:17.786Z,13.67
2022-09-18T08:38:17.742Z,14.05
2022-09-18T08:39:17.733Z,13.86
2022-09-18T08:40:17.981Z,13.96
2022-09-18T08:41:17.750Z,13.97
2022-09-18T08:42:17.794Z,13.87
2022-09-18T08:43:17.732Z,13.89
2022-09-18T08:44:17.711Z,13.87
2022-09-18T08:45:17.861Z,13.96
2022-09-18T08:46:17.761Z,13.97
2022-09-18T08:47:17.704Z,14.04
2022-09-18T08:48:17.674Z,14.00
2022-09-18T08:49:17.680Z,14.08
2022-09-18T08:50:17.824Z,13.99
2022-09-18T08:51:17.646Z,14.10
2022-09-18T08:52:17.773Z,13.96
2022-09-18T08:53:17.640Z,13.93
2022-09-18T08:54:17.627Z,14.03
2022-09-18T08:55:17.756Z,14.10
2022-09-18T08:56:17.614Z,14.08
2022-09-18T08:57:17.602Z,13.99
2022-09-18T08:58:17.737Z,14.08
2022-09-18T08:59:17.598Z,14.11
2022-09-18T09:00:17.729Z,14.14
2022-09-18T09:01:17.668Z,14.28
2022-09-18T09:02:19.127Z,14.26
2022-09-18T09:03:17.562Z,14.47
2022-09-18T09:04:17.564Z,14.62
2022-09-18T09:05:17.718Z,14.59
2022-09-18T09:06:17.544Z,14.65
2022-09-18T09:07:17.540Z,14.60
2022-09-18T09:08:17.654Z,14.62
2022-09-18T09:09:21.173Z,14.58
2022-09-18T09:10:17.689Z,14.62
2022-09-18T09:11:17.509Z,14.54
2022-09-18T09:12:17.501Z,14.51
2022-09-18T09:13:17.494Z,14.44
2022-09-18T09:14:17.478Z,14.60
2022-09-18T09:15:21.487Z,14.30
2022-09-18T09:16:17.595Z,14.43
2022-09-18T09:17:17.462Z,14.29
2022-09-18T09:18:17.464Z,14.33
2022-09-18T09:19:17.490Z,14.43
2022-09-18T09:20:17.605Z,14.54
2022-09-18T09:21:17.585Z,14.55
2022-09-18T09:22:17.535Z,14.58
2022-09-18T09:23:18.367Z,14.48
2022-09-18T09:24:17.525Z,14.22
2022-09-18T09:25:17.617Z,14.03
2022-09-18T09:26:17.398Z,13.90
2022-09-18T09:27:17.417Z,14.04
2022-09-18T09:28:17.395Z,13.95
2022-09-18T09:29:17.383Z,13.90
2022-09-18T09:30:17.613Z,14.03
2022-09-18T09:31:17.480Z,13.99
2022-09-18T09:32:17.355Z,13.96
2022-09-18T09:33:17.364Z,13.92
2022-09-18T09:34:17.342Z,14.08
2022-09-18T09:35:17.511Z,13.89
2022-09-18T09:36:17.348Z,13.87
2022-09-18T09:37:17.321Z,13.81
2022-09-18T09:38:17.306Z,13.74
2022-09-18T09:39:17.296Z,13.78
2022-09-18T09:40:17.772Z,13.71
2022-09-18T09:41:17.289Z,13.78
2022-09-18T09:42:17.297Z,13.83
2022-09-18T09:43:17.273Z,13.89
2022-09-18T09:44:17.270Z,13.97
2022-09-18T09:45:17.449Z,14.03
2022-09-18T09:46:21.294Z,13.92
2022-09-18T09:47:17.307Z,13.99
2022-09-18T09:48:17.240Z,14.05
2022-09-18T09:49:17.265Z,14.08
2022-09-18T09:50:17.653Z,14.08
2022-09-18T09:51:17.424Z,14.00
2022-09-18T09:52:17.199Z,14.04
2022-09-18T09:53:17.204Z,14.05
2022-09-18T09:54:17.231Z,14.04
2022-09-18T09:55:17.351Z,14.08
2022-09-18T09:56:17.303Z,14.00
2022-09-18T09:57:17.193Z,14.07
2022-09-18T09:58:17.171Z,13.97
2022-09-18T09:59:17.162Z,13.99
2022-09-18T10:00:17.315Z,13.93
2022-09-18T10:01:17.709Z,13.99
2022-09-18T10:02:17.244Z,13.93
2022-09-18T10:03:17.152Z,13.87
2022-09-18T10:04:17.140Z,13.83
2022-09-18T10:05:17.295Z,13.90
2022-09-18T10:06:17.108Z,13.81
2022-09-18T10:07:17.119Z,13.75
2022-09-18T10:08:17.498Z,13.72
2022-09-18T10:09:17.411Z,13.78
2022-09-18T10:10:17.342Z,13.75
2022-09-18T10:11:17.217Z,13.72
2022-09-18T10:12:17.328Z,13.60
2022-09-18T10:13:17.084Z,13.53
2022-09-18T10:14:17.089Z,13.56
2022-09-18T10:15:17.184Z,13.52
2022-09-18T10:16:17.072Z,13.54
2022-09-18T10:17:17.025Z,13.56
2022-09-18T10:18:17.038Z,13.52
2022-09-18T10:19:17.203Z,13.54
2022-09-18T10:20:17.327Z,13.56
2022-09-18T10:21:17.134Z,13.56
2022-09-18T10:22:17.380Z,13.52
2022-09-18T10:23:16.974Z,13.53
2022-09-18T10:24:16.971Z,13.59
2022-09-18T10:25:17.137Z,13.63
2022-09-18T10:26:16.973Z,13.74
2022-09-18T10:27:16.945Z,13.77
2022-09-18T10:28:17.067Z,13.79
2022-09-18T10:29:16.947Z,13.83
2022-09-18T10:30:17.099Z,13.87
2022-09-18T10:31:16.988Z,13.89
2022-09-18T10:32:16.905Z,13.97
2022-09-18T10:33:16.897Z,14.07
2022-09-18T10:34:16.895Z,13.95
2022-09-18T10:35:17.466Z,13.90
2022-09-18T10:36:16.890Z,13.87
2022-09-18T10:37:16.878Z,13.89
2022-09-18T10:38:16.861Z,13.86
2022-09-18T10:39:16.870Z,13.89
2022-09-18T10:40:17.097Z,13.65
2022-09-18T10:41:16.842Z,13.68
2022-09-18T10:42:16.855Z,13.65
2022-09-18T10:43:16.840Z,13.57
2022-09-18T10:44:17.001Z,13.56
2022-09-18T10:45:16.977Z,13.63
2022-09-18T10:46:16.826Z,13.54
2022-09-18T10:47:16.807Z,13.63
2022-09-18T10:48:16.795Z,13.60
2022-09-18T10:49:16.790Z,13.54
2022-09-18T10:50:16.962Z,13.57
2022-09-18T10:51:16.769Z,13.59
2022-09-18T10:52:16.769Z,13.50
2022-09-18T10:53:16.754Z,13.52
2022-09-18T10:54:16.762Z,13.56
2022-09-18T10:55:16.910Z,13.52
2022-09-18T10:56:16.727Z,13.56
2022-09-18T10:57:16.715Z,13.59
2022-09-18T10:58:16.712Z,13.57
2022-09-18T10:59:16.735Z,13.56
2022-09-18T11:00:16.967Z,13.65
2022-09-18T11:01:16.736Z,13.62
2022-09-18T11:02:16.753Z,13.63
2022-09-18T11:03:16.688Z,13.68
2022-09-18T11:04:16.680Z,13.63
2022-09-18T11:05:16.817Z,13.62
2022-09-18T11:06:16.657Z,13.46
2022-09-18T11:07:16.647Z,13.53
2022-09-18T11:08:16.644Z,13.47
2022-09-18T11:09:16.621Z,13.39
2022-09-18T11:10:16.805Z,13.50
2022-09-18T11:11:16.615Z,13.42
2022-09-18T11:12:16.619Z,13.46
2022-09-18T11:13:16.606Z,13.44
2022-09-18T11:14:16.603Z,13.44
2022-09-18T11:15:16.739Z,13.44
2022-09-18T11:16:16.748Z,13.37
2022-09-18T11:17:16.571Z,13.25
2022-09-18T11:18:16.574Z,13.09
2022-09-18T11:19:16.553Z,13.11
2022-09-18T11:20:16.702Z,13.05
2022-09-18T11:21:16.532Z,13.00
2022-09-18T11:22:16.561Z,13.04
2022-09-18T11:23:16.528Z,13.04
2022-09-18T11:24:16.821Z,13.00
2022-09-18T11:25:17.037Z,12.98
2022-09-18T11:26:16.890Z,12.95
2022-09-18T11:27:16.996Z,12.90
2022-09-18T11:28:16.593Z,13.03
2022-09-18T11:29:16.993Z,13.11
2022-09-18T11:30:16.648Z,13.11
2022-09-18T11:31:16.758Z,13.19
2022-09-18T11:32:16.576Z,13.22
2022-09-18T11:33:16.557Z,13.27
2022-09-18T11:34:16.591Z,13.35
2022-09-18T11:35:16.804Z,13.41
2022-09-18T11:36:16.592Z,13.57
2022-09-18T11:37:16.427Z,13.59
2022-09-18T11:38:16.425Z,13.71
2022-09-18T11:39:16.392Z,13.68
2022-09-18T11:40:17.050Z,13.50
2022-09-18T11:41:16.389Z,13.50
2022-09-18T11:42:16.381Z,13.38
2022-09-18T11:43:16.375Z,13.42
2022-09-18T11:44:16.364Z,13.39
2022-09-18T11:45:16.505Z,13.33
2022-09-18T11:46:16.393Z,13.35
2022-09-18T11:47:16.342Z,13.25
2022-09-18T11:48:16.452Z,13.16
2022-09-18T11:49:16.333Z,13.09
2022-09-18T11:50:16.890Z,13.13
2022-09-18T11:51:16.439Z,13.18
2022-09-18T11:52:16.306Z,13.09
2022-09-18T11:53:16.308Z,13.13
2022-09-18T11:54:16.284Z,13.19
2022-09-18T11:55:16.437Z,13.15
2022-09-18T11:56:16.274Z,13.16
2022-09-18T11:57:16.275Z,13.05
2022-09-18T11:58:16.268Z,13.11
2022-09-18T11:59:16.262Z,12.98
2022-09-18T12:00:16.604Z,12.86
2022-09-18T12:01:16.231Z,12.76
2022-09-18T12:02:16.422Z,12.75
2022-09-18T12:03:16.295Z,12.75
2022-09-18T12:04:16.484Z,12.79
2022-09-18T12:05:16.352Z,12.78
2022-09-18T12:06:16.217Z,12.62
2022-09-18T12:07:16.194Z,12.65
2022-09-18T12:08:14.824Z,12.73
2022-09-18T12:09:14.814Z,12.72
2022-09-18T12:10:14.979Z,12.68
2022-09-18T12:11:14.805Z,12.79
2022-09-18T12:12:14.828Z,12.85
2022-09-18T12:13:14.792Z,12.91
2022-09-18T12:14:14.776Z,12.78
2022-09-18T12:15:15.046Z,12.64
2022-09-18T12:16:14.804Z,12.65
2022-09-18T12:17:14.862Z,12.65
2022-09-18T12:18:14.734Z,12.76
2022-09-18T12:19:14.734Z,12.76
2022-09-18T12:20:15.003Z,12.87
2022-09-18T12:21:14.719Z,12.86
2022-09-18T12:22:14.707Z,12.97
2022-09-18T12:23:14.722Z,13.05
2022-09-18T12:24:14.694Z,13.13
2022-09-18T12:25:14.843Z,13.23
2022-09-18T12:26:14.678Z,13.22
2022-09-18T12:27:14.661Z,13.19
2022-09-18T12:28:14.659Z,13.23
2022-09-18T12:29:14.724Z,13.30
2022-09-18T12:30:14.787Z,13.22
2022-09-18T12:31:14.735Z,13.12
2022-09-18T12:32:14.625Z,13.11
2022-09-18T12:33:14.669Z,13.11
2022-09-18T12:34:14.611Z,13.09
2022-09-18T12:35:14.759Z,13.19
2022-09-18T12:36:14.732Z,13.13
2022-09-18T12:37:14.583Z,13.28
2022-09-18T12:38:14.583Z,13.27
2022-09-18T12:39:15.239Z,13.28
2022-09-18T12:40:15.434Z,13.28
2022-09-18T12:41:15.221Z,13.19
2022-09-18T12:42:15.277Z,13.13
2022-09-18T12:43:15.230Z,13.08
2022-09-18T12:44:15.191Z,12.93
2022-09-18T12:45:15.333Z,12.85
2022-09-18T12:46:15.259Z,12.86
2022-09-18T12:47:15.178Z,12.86
2022-09-18T12:48:15.159Z,12.87
2022-09-18T12:49:15.147Z,13.01
2022-09-18T12:50:15.315Z,13.09
2022-09-18T12:51:15.142Z,12.98
2022-09-18T12:52:15.256Z,12.95
2022-09-18T12:53:15.120Z,12.91
2022-09-18T12:54:15.115Z,12.82
2022-09-18T12:55:15.269Z,12.83
2022-09-18T12:56:15.100Z,12.86
2022-09-18T12:57:15.086Z,12.73
2022-09-18T12:58:15.091Z,12.60
2022-09-18T12:59:15.074Z,12.57